sensor_id;sensor_type;location;lat;lon;timestamp;temperature;humidity
56076;DHT22;41951;49.022;12.066;2022-07-29T00:01:06;22.50;84.90
56076;DHT22;41951;49.022;12.066;2022-07-29T00:03:32;22.50;85.00
56076;DHT22;41951;49.022;12.066;2022-07-29T00:05:58;22.40;84.80
56076;DHT22;41951;49.022;12.066;2022-07-29T00:08:23;22.40;84.80
56076;DHT22;41951;49.022;12.066;2022-07-29T00:10:49;22.40;84.80
56076;DHT22;41951;49.022;12.066;2022-07-29T00:13:15;22.40;84.70
56076;DHT22;41951;49.022;12.066;2022-07-29T00:15:40;22.40;84.80
56076;DHT22;41951;49.022;12.066;2022-07-29T00:18:06;22.50;84.80
56076;DHT22;41951;49.022;12.066;2022-07-29T00:20:32;22.40;84.90
56076;DHT22;41951;49.022;12.066;2022-07-29T00:22:57;22.50;85.00
56076;DHT22;41951;49.022;12.066;2022-07-29T00:25:23;22.40;85.00
56076;DHT22;41951;49.022;12.066;2022-07-29T00:27:48;22.50;85.10
56076;DHT22;41951;49.022;12.066;2022-07-29T00:30:14;22.50;85.00
56076;DHT22;41951;49.022;12.066;2022-07-29T00:32:40;22.40;85.00
56076;DHT22;41951;49.022;12.066;2022-07-29T00:35:06;22.40;85.20
56076;DHT22;41951;49.022;12.066;2022-07-29T00:37:51;22.40;85.10
56076;DHT22;41951;49.022;12.066;2022-07-29T00:40:17;22.40;85.40
56076;DHT22;41951;49.022;12.066;2022-07-29T00:42:49;22.30;86.00
56076;DHT22;41951;49.022;12.066;2022-07-29T00:45:15;22.30;86.90
56076;DHT22;41951;49.022;12.066;2022-07-29T00:47:41;22.30;87.00
56076;DHT22;41951;49.022;12.066;2022-07-29T00:50:09;22.20;87.50
56076;DHT22;41951;49.022;12.066;2022-07-29T00:52:36;22.20;87.90
56076;DHT22;41951;49.022;12.066;2022-07-29T00:55:05;21.90;88.10
56076;DHT22;41951;49.022;12.066;2022-07-29T00:57:30;21.80;88.50
56076;DHT22;41951;49.022;12.066;2022-07-29T00:59:56;21.80;88.80
56076;DHT22;41951;49.022;12.066;2022-07-29T01:02:22;21.70;88.90
56076;DHT22;41951;49.022;12.066;2022-07-29T01:04:48;21.70;89.30
56076;DHT22;41951;49.022;12.066;2022-07-29T01:07:14;21.60;89.40
56076;DHT22;41951;49.022;12.066;2022-07-29T01:09:41;21.50;89.70
56076;DHT22;41951;49.022;12.066;2022-07-29T01:12:07;21.50;89.90
56076;DHT22;41951;49.022;12.066;2022-07-29T01:14:34;21.60;89.90
56076;DHT22;41951;49.022;12.066;2022-07-29T01:17:12;21.60;89.90
56076;DHT22;41951;49.022;12.066;2022-07-29T01:19:48;21.50;90.00
56076;DHT22;41951;49.022;12.066;2022-07-29T01:31:06;21.20;91.20
56076;DHT22;41951;49.022;12.066;2022-07-29T01:33:34;21.10;91.10
56076;DHT22;41951;49.022;12.066;2022-07-29T01:36:22;21.20;91.40
56076;DHT22;41951;49.022;12.066;2022-07-29T01:39:05;21.10;91.20
56076;DHT22;41951;49.022;12.066;2022-07-29T01:41:33;21.10;91.50
56076;DHT22;41951;49.022;12.066;2022-07-29T01:44:02;21.20;91.50
56076;DHT22;41951;49.022;12.066;2022-07-29T01:46:34;21.20;91.40
56076;DHT22;41951;49.022;12.066;2022-07-29T01:49:11;21.10;91.30
56076;DHT22;41951;49.022;12.066;2022-07-29T01:52:14;21.10;91.60
56076;DHT22;41951;49.022;12.066;2022-07-29T01:54:52;21.20;91.70
56076;DHT22;41951;49.022;12.066;2022-07-29T01:57:21;21.20;91.60
56076;DHT22;41951;49.022;12.066;2022-07-29T01:59:49;21.30;91.50
56076;DHT22;41951;49.022;12.066;2022-07-29T02:02:16;21.30;91.50
56076;DHT22;41951;49.022;12.066;2022-07-29T02:04:44;21.40;91.40
56076;DHT22;41951;49.022;12.066;2022-07-29T02:07:17;21.40;91.50
56076;DHT22;41951;49.022;12.066;2022-07-29T02:09:44;21.40;91.30
56076;DHT22;41951;49.022;12.066;2022-07-29T02:12:11;21.40;91.30
56076;DHT22;41951;49.022;12.066;2022-07-29T02:14:52;21.40;91.20
56076;DHT22;41951;49.022;12.066;2022-07-29T02:17:25;21.40;91.10
56076;DHT22;41951;49.022;12.066;2022-07-29T02:19:56;21.40;90.80
56076;DHT22;41951;49.022;12.066;2022-07-29T02:22:25;21.40;90.80
56076;DHT22;41951;49.022;12.066;2022-07-29T02:24:53;21.40;90.80
56076;DHT22;41951;49.022;12.066;2022-07-29T02:27:19;21.40;90.70
56076;DHT22;41951;49.022;12.066;2022-07-29T02:29:46;21.40;90.60
56076;DHT22;41951;49.022;12.066;2022-07-29T02:32:13;21.40;90.70
56076;DHT22;41951;49.022;12.066;2022-07-29T02:34:40;21.40;90.60
56076;DHT22;41951;49.022;12.066;2022-07-29T02:37:09;21.30;90.60
56076;DHT22;41951;49.022;12.066;2022-07-29T02:39:35;21.30;90.60
56076;DHT22;41951;49.022;12.066;2022-07-29T02:42:06;21.30;90.60
56076;DHT22;41951;49.022;12.066;2022-07-29T02:44:33;21.30;90.70
56076;DHT22;41951;49.022;12.066;2022-07-29T02:50:03;21.30;90.80
56076;DHT22;41951;49.022;12.066;2022-07-29T02:52:44;21.20;90.80
56076;DHT22;41951;49.022;12.066;2022-07-29T02:55:18;21.20;90.90
56076;DHT22;41951;49.022;12.066;2022-07-29T02:57:49;21.30;90.90
56076;DHT22;41951;49.022;12.066;2022-07-29T03:00:17;21.20;90.90
56076;DHT22;41951;49.022;12.066;2022-07-29T03:02:45;21.20;90.90
56076;DHT22;41951;49.022;12.066;2022-07-29T03:05:18;21.20;90.90
56076;DHT22;41951;49.022;12.066;2022-07-29T03:07:48;21.30;90.90
56076;DHT22;41951;49.022;12.066;2022-07-29T03:10:15;21.20;91.00
56076;DHT22;41951;49.022;12.066;2022-07-29T03:12:41;21.20;91.10
56076;DHT22;41951;49.022;12.066;2022-07-29T03:15:07;21.20;91.10
56076;DHT22;41951;49.022;12.066;2022-07-29T03:17:34;21.20;91.00
56076;DHT22;41951;49.022;12.066;2022-07-29T03:19:59;21.10;91.10
56076;DHT22;41951;49.022;12.066;2022-07-29T03:22:26;21.00;91.20
56076;DHT22;41951;49.022;12.066;2022-07-29T03:24:52;21.00;91.30
56076;DHT22;41951;49.022;12.066;2022-07-29T03:27:18;21.00;91.30
56076;DHT22;41951;49.022;12.066;2022-07-29T03:29:43;20.90;91.40
56076;DHT22;41951;49.022;12.066;2022-07-29T03:32:09;21.00;91.50
56076;DHT22;41951;49.022;12.066;2022-07-29T03:34:36;20.90;91.70
56076;DHT22;41951;49.022;12.066;2022-07-29T03:37:02;20.90;92.00
56076;DHT22;41951;49.022;12.066;2022-07-29T03:39:33;20.80;91.80
56076;DHT22;41951;49.022;12.066;2022-07-29T03:42:00;20.90;91.80
56076;DHT22;41951;49.022;12.066;2022-07-29T03:44:27;20.90;91.80
56076;DHT22;41951;49.022;12.066;2022-07-29T03:46:55;20.80;91.90
56076;DHT22;41951;49.022;12.066;2022-07-29T03:49:23;20.90;91.90
56076;DHT22;41951;49.022;12.066;2022-07-29T03:51:50;20.90;91.80
56076;DHT22;41951;49.022;12.066;2022-07-29T03:54:15;20.90;91.80
56076;DHT22;41951;49.022;12.066;2022-07-29T03:56:43;20.80;91.90
56076;DHT22;41951;49.022;12.066;2022-07-29T03:59:14;20.80;91.90
56076;DHT22;41951;49.022;12.066;2022-07-29T04:01:40;20.90;91.90
56076;DHT22;41951;49.022;12.066;2022-07-29T04:04:06;20.90;91.90
56076;DHT22;41951;49.022;12.066;2022-07-29T04:06:45;20.90;91.90
56076;DHT22;41951;49.022;12.066;2022-07-29T04:09:11;21.00;91.90
56076;DHT22;41951;49.022;12.066;2022-07-29T04:11:39;20.90;91.70
56076;DHT22;41951;49.022;12.066;2022-07-29T04:14:04;20.80;91.80
56076;DHT22;41951;49.022;12.066;2022-07-29T04:16:30;20.70;92.70
56076;DHT22;41951;49.022;12.066;2022-07-29T04:18:56;20.50;92.90
56076;DHT22;41951;49.022;12.066;2022-07-29T04:21:22;20.40;93.30
56076;DHT22;41951;49.022;12.066;2022-07-29T04:23:47;20.30;93.50
56076;DHT22;41951;49.022;12.066;2022-07-29T04:26:18;20.20;93.80
56076;DHT22;41951;49.022;12.066;2022-07-29T04:28:44;20.20;94.00
56076;DHT22;41951;49.022;12.066;2022-07-29T04:31:11;20.10;94.10
56076;DHT22;41951;49.022;12.066;2022-07-29T04:33:37;20.10;94.30
56076;DHT22;41951;49.022;12.066;2022-07-29T04:36:03;20.20;94.40
56076;DHT22;41951;49.022;12.066;2022-07-29T04:38:29;20.00;94.30
56076;DHT22;41951;49.022;12.066;2022-07-29T04:40:54;20.00;94.40
56076;DHT22;41951;49.022;12.066;2022-07-29T04:43:20;20.10;94.50
56076;DHT22;41951;49.022;12.066;2022-07-29T04:45:45;20.20;94.40
56076;DHT22;41951;49.022;12.066;2022-07-29T04:48:11;20.20;94.30
56076;DHT22;41951;49.022;12.066;2022-07-29T04:50:40;20.30;94.30
56076;DHT22;41951;49.022;12.066;2022-07-29T04:53:06;20.30;94.10
56076;DHT22;41951;49.022;12.066;2022-07-29T04:55:32;20.30;94.00
56076;DHT22;41951;49.022;12.066;2022-07-29T04:57:57;20.20;93.80
56076;DHT22;41951;49.022;12.066;2022-07-29T05:00:23;20.20;94.00
56076;DHT22;41951;49.022;12.066;2022-07-29T05:02:49;20.10;94.10
56076;DHT22;41951;49.022;12.066;2022-07-29T05:05:15;20.10;94.10
56076;DHT22;41951;49.022;12.066;2022-07-29T05:07:40;20.10;94.10
56076;DHT22;41951;49.022;12.066;2022-07-29T05:10:07;20.00;94.00
56076;DHT22;41951;49.022;12.066;2022-07-29T05:12:33;19.90;94.00
56076;DHT22;41951;49.022;12.066;2022-07-29T05:14:59;19.80;94.10
56076;DHT22;41951;49.022;12.066;2022-07-29T05:17:24;19.80;94.30
56076;DHT22;41951;49.022;12.066;2022-07-29T05:19:50;19.70;94.40
56076;DHT22;41951;49.022;12.066;2022-07-29T05:22:17;19.80;94.60
56076;DHT22;41951;49.022;12.066;2022-07-29T05:24:44;19.90;94.50
56076;DHT22;41951;49.022;12.066;2022-07-29T05:27:09;20.00;94.80
56076;DHT22;41951;49.022;12.066;2022-07-29T05:29:35;20.10;94.40
56076;DHT22;41951;49.022;12.066;2022-07-29T05:32:00;20.20;94.30
56076;DHT22;41951;49.022;12.066;2022-07-29T05:34:26;20.20;94.40
56076;DHT22;41951;49.022;12.066;2022-07-29T05:36:52;20.30;94.10
56076;DHT22;41951;49.022;12.066;2022-07-29T05:39:18;20.40;94.00
56076;DHT22;41951;49.022;12.066;2022-07-29T05:41:43;20.30;93.90
56076;DHT22;41951;49.022;12.066;2022-07-29T05:44:09;20.40;93.90
56076;DHT22;41951;49.022;12.066;2022-07-29T05:46:34;20.40;93.90
56076;DHT22;41951;49.022;12.066;2022-07-29T05:49:00;20.40;93.80
56076;DHT22;41951;49.022;12.066;2022-07-29T05:51:25;20.50;93.90
56076;DHT22;41951;49.022;12.066;2022-07-29T05:53:51;20.50;93.80
56076;DHT22;41951;49.022;12.066;2022-07-29T05:56:17;20.60;93.80
56076;DHT22;41951;49.022;12.066;2022-07-29T05:58:42;20.60;93.70
56076;DHT22;41951;49.022;12.066;2022-07-29T06:01:08;20.60;93.60
56076;DHT22;41951;49.022;12.066;2022-07-29T06:03:34;20.70;93.50
56076;DHT22;41951;49.022;12.066;2022-07-29T06:05:59;20.80;93.40
56076;DHT22;41951;49.022;12.066;2022-07-29T06:08:25;20.80;93.30
56076;DHT22;41951;49.022;12.066;2022-07-29T06:10:51;20.80;93.20
56076;DHT22;41951;49.022;12.066;2022-07-29T06:13:16;20.90;93.10
56076;DHT22;41951;49.022;12.066;2022-07-29T06:18:30;21.00;93.00
56076;DHT22;41951;49.022;12.066;2022-07-29T06:20:56;21.10;93.00
56076;DHT22;41951;49.022;12.066;2022-07-29T06:23:22;20.90;92.80
56076;DHT22;41951;49.022;12.066;2022-07-29T06:25:47;20.80;93.00
56076;DHT22;41951;49.022;12.066;2022-07-29T06:28:13;20.90;93.10
56076;DHT22;41951;49.022;12.066;2022-07-29T06:30:40;20.90;92.90
56076;DHT22;41951;49.022;12.066;2022-07-29T06:33:05;21.00;92.90
56076;DHT22;41951;49.022;12.066;2022-07-29T06:35:34;21.10;92.90
56076;DHT22;41951;49.022;12.066;2022-07-29T06:38:00;21.10;92.70
56076;DHT22;41951;49.022;12.066;2022-07-29T06:40:26;21.10;92.40
56076;DHT22;41951;49.022;12.066;2022-07-29T06:43:10;21.10;92.50
56076;DHT22;41951;49.022;12.066;2022-07-29T06:45:36;21.30;92.40
56076;DHT22;41951;49.022;12.066;2022-07-29T06:48:01;21.30;92.30
56076;DHT22;41951;49.022;12.066;2022-07-29T06:50:27;21.30;92.30
56076;DHT22;41951;49.022;12.066;2022-07-29T06:52:53;21.30;92.10
56076;DHT22;41951;49.022;12.066;2022-07-29T06:55:18;21.20;92.20
56076;DHT22;41951;49.022;12.066;2022-07-29T06:57:45;21.20;92.10
56076;DHT22;41951;49.022;12.066;2022-07-29T07:00:12;21.20;92.10
56076;DHT22;41951;49.022;12.066;2022-07-29T07:02:38;21.40;92.30
56076;DHT22;41951;49.022;12.066;2022-07-29T07:05:04;21.40;92.10
56076;DHT22;41951;49.022;12.066;2022-07-29T07:07:30;21.40;92.10
56076;DHT22;41951;49.022;12.066;2022-07-29T07:09:56;21.50;91.90
56076;DHT22;41951;49.022;12.066;2022-07-29T07:12:22;21.60;92.00
56076;DHT22;41951;49.022;12.066;2022-07-29T07:14:47;21.80;92.00
56076;DHT22;41951;49.022;12.066;2022-07-29T07:17:13;22.00;92.00
56076;DHT22;41951;49.022;12.066;2022-07-29T07:19:38;22.20;91.90
56076;DHT22;41951;49.022;12.066;2022-07-29T07:22:04;22.40;91.50
56076;DHT22;41951;49.022;12.066;2022-07-29T07:24:30;22.60;91.20
56076;DHT22;41951;49.022;12.066;2022-07-29T07:26:55;22.50;91.10
56076;DHT22;41951;49.022;12.066;2022-07-29T07:29:21;22.70;91.00
56076;DHT22;41951;49.022;12.066;2022-07-29T07:31:46;22.70;90.90
56076;DHT22;41951;49.022;12.066;2022-07-29T07:34:12;22.60;90.90
56076;DHT22;41951;49.022;12.066;2022-07-29T07:36:37;22.50;90.90
56076;DHT22;41951;49.022;12.066;2022-07-29T07:39:03;22.40;91.10
56076;DHT22;41951;49.022;12.066;2022-07-29T07:41:30;22.50;91.10
56076;DHT22;41951;49.022;12.066;2022-07-29T07:43:55;22.80;91.10
56076;DHT22;41951;49.022;12.066;2022-07-29T07:46:21;22.80;91.30
56076;DHT22;41951;49.022;12.066;2022-07-29T07:48:46;23.00;90.80
56076;DHT22;41951;49.022;12.066;2022-07-29T07:51:12;23.10;90.60
56076;DHT22;41951;49.022;12.066;2022-07-29T07:53:38;23.30;90.60
56076;DHT22;41951;49.022;12.066;2022-07-29T07:56:03;23.40;90.40
56076;DHT22;41951;49.022;12.066;2022-07-29T07:58:31;23.60;90.30
56076;DHT22;41951;49.022;12.066;2022-07-29T08:00:57;23.70;90.20
56076;DHT22;41951;49.022;12.066;2022-07-29T08:03:22;23.90;90.00
56076;DHT22;41951;49.022;12.066;2022-07-29T08:05:48;23.90;89.70
56076;DHT22;41951;49.022;12.066;2022-07-29T08:08:15;23.90;89.90
56076;DHT22;41951;49.022;12.066;2022-07-29T08:10:41;24.10;89.70
56076;DHT22;41951;49.022;12.066;2022-07-29T08:13:20;24.30;89.60
56076;DHT22;41951;49.022;12.066;2022-07-29T08:15:46;24.50;89.20
56076;DHT22;41951;49.022;12.066;2022-07-29T08:18:13;24.70;88.80
56076;DHT22;41951;49.022;12.066;2022-07-29T08:20:39;24.80;88.40
56076;DHT22;41951;49.022;12.066;2022-07-29T08:23:06;24.80;88.30
56076;DHT22;41951;49.022;12.066;2022-07-29T08:25:35;24.80;87.90
56076;DHT22;41951;49.022;12.066;2022-07-29T08:28:01;25.00;87.60
56076;DHT22;41951;49.022;12.066;2022-07-29T08:30:26;25.00;87.20
56076;DHT22;41951;49.022;12.066;2022-07-29T08:32:52;25.10;87.10
56076;DHT22;41951;49.022;12.066;2022-07-29T08:35:19;25.20;86.80
56076;DHT22;41951;49.022;12.066;2022-07-29T08:37:45;25.10;86.50
56076;DHT22;41951;49.022;12.066;2022-07-29T08:40:11;25.00;86.30
56076;DHT22;41951;49.022;12.066;2022-07-29T08:42:37;25.20;86.30
56076;DHT22;41951;49.022;12.066;2022-07-29T08:45:04;25.20;86.40
56076;DHT22;41951;49.022;12.066;2022-07-29T08:47:30;25.40;86.30
56076;DHT22;41951;49.022;12.066;2022-07-29T08:49:56;25.60;86.00
56076;DHT22;41951;49.022;12.066;2022-07-29T08:52:25;25.70;85.70
56076;DHT22;41951;49.022;12.066;2022-07-29T08:54:52;25.80;84.90
56076;DHT22;41951;49.022;12.066;2022-07-29T08:57:19;25.80;84.90
56076;DHT22;41951;49.022;12.066;2022-07-29T08:59:46;25.60;84.70
56076;DHT22;41951;49.022;12.066;2022-07-29T09:02:21;25.70;84.70
56076;DHT22;41951;49.022;12.066;2022-07-29T09:04:47;25.80;84.90
56076;DHT22;41951;49.022;12.066;2022-07-29T09:07:17;26.00;84.60
56076;DHT22;41951;49.022;12.066;2022-07-29T09:09:43;26.10;84.40
56076;DHT22;41951;49.022;12.066;2022-07-29T09:12:10;26.20;84.30
56076;DHT22;41951;49.022;12.066;2022-07-29T09:14:37;26.20;84.10
56076;DHT22;41951;49.022;12.066;2022-07-29T09:17:03;26.10;83.80
56076;DHT22;41951;49.022;12.066;2022-07-29T09:19:31;26.10;84.40
56076;DHT22;41951;49.022;12.066;2022-07-29T09:21:59;26.20;84.80
56076;DHT22;41951;49.022;12.066;2022-07-29T09:24:42;26.10;84.80
56076;DHT22;41951;49.022;12.066;2022-07-29T09:27:11;26.40;85.10
56076;DHT22;41951;49.022;12.066;2022-07-29T09:29:37;26.40;84.60
56076;DHT22;41951;49.022;12.066;2022-07-29T09:32:08;26.50;84.60
56076;DHT22;41951;49.022;12.066;2022-07-29T09:34:34;26.60;84.50
56076;DHT22;41951;49.022;12.066;2022-07-29T09:37:00;26.50;84.30
56076;DHT22;41951;49.022;12.066;2022-07-29T09:39:34;26.60;84.40
56076;DHT22;41951;49.022;12.066;2022-07-29T09:42:03;26.70;84.30
56076;DHT22;41951;49.022;12.066;2022-07-29T09:47:08;26.70;83.90
56076;DHT22;41951;49.022;12.066;2022-07-29T09:49:35;26.80;83.90
56076;DHT22;41951;49.022;12.066;2022-07-29T09:54:30;27.00;83.10
56076;DHT22;41951;49.022;12.066;2022-07-29T09:57:03;27.10;83.10
56076;DHT22;41951;49.022;12.066;2022-07-29T09:59:29;27.20;82.80
56076;DHT22;41951;49.022;12.066;2022-07-29T10:01:55;27.20;82.90
56076;DHT22;41951;49.022;12.066;2022-07-29T10:04:21;27.30;83.00
56076;DHT22;41951;49.022;12.066;2022-07-29T10:07:01;27.40;82.70
56076;DHT22;41951;49.022;12.066;2022-07-29T10:09:27;27.40;82.50
56076;DHT22;41951;49.022;12.066;2022-07-29T10:12:10;27.50;82.30
56076;DHT22;41951;49.022;12.066;2022-07-29T10:14:37;27.60;81.90
56076;DHT22;41951;49.022;12.066;2022-07-29T10:17:06;27.60;81.80
56076;DHT22;41951;49.022;12.066;2022-07-29T10:19:32;27.60;81.40
56076;DHT22;41951;49.022;12.066;2022-07-29T10:21:59;27.60;81.60
56076;DHT22;41951;49.022;12.066;2022-07-29T10:24:27;27.70;81.40
56076;DHT22;41951;49.022;12.066;2022-07-29T10:26:55;27.70;81.20
56076;DHT22;41951;49.022;12.066;2022-07-29T10:29:21;27.40;81.00
56076;DHT22;41951;49.022;12.066;2022-07-29T10:37:31;27.60;81.30
56076;DHT22;41951;49.022;12.066;2022-07-29T10:40:14;27.70;81.00
56076;DHT22;41951;49.022;12.066;2022-07-29T10:43:16;27.70;81.00
56076;DHT22;41951;49.022;12.066;2022-07-29T10:45:44;27.80;80.60
56076;DHT22;41951;49.022;12.066;2022-07-29T10:48:10;27.80;80.40
56076;DHT22;41951;49.022;12.066;2022-07-29T10:51:02;27.80;80.00
56076;DHT22;41951;49.022;12.066;2022-07-29T10:56:28;28.00;80.40
56076;DHT22;41951;49.022;12.066;2022-07-29T11:01:48;28.20;79.80
56076;DHT22;41951;49.022;12.066;2022-07-29T11:04:15;28.30;79.30
56076;DHT22;41951;49.022;12.066;2022-07-29T11:07:06;28.20;79.30
56076;DHT22;41951;49.022;12.066;2022-07-29T11:09:33;28.20;79.20
56076;DHT22;41951;49.022;12.066;2022-07-29T11:11:59;28.20;79.00
56076;DHT22;41951;49.022;12.066;2022-07-29T11:17:18;28.10;79.10
56076;DHT22;41951;49.022;12.066;2022-07-29T11:19:44;28.10;79.30
56076;DHT22;41951;49.022;12.066;2022-07-29T11:22:11;28.20;79.10
56076;DHT22;41951;49.022;12.066;2022-07-29T11:24:37;28.20;79.00
56076;DHT22;41951;49.022;12.066;2022-07-29T11:29:32;28.20;78.60
56076;DHT22;41951;49.022;12.066;2022-07-29T11:32:11;28.20;78.60
56076;DHT22;41951;49.022;12.066;2022-07-29T11:34:37;28.30;79.20
56076;DHT22;41951;49.022;12.066;2022-07-29T11:40:07;28.50;78.70
56076;DHT22;41951;49.022;12.066;2022-07-29T11:47:35;28.30;77.10
56076;DHT22;41951;49.022;12.066;2022-07-29T11:50:03;28.20;76.60
56076;DHT22;41951;49.022;12.066;2022-07-29T11:52:33;28.10;76.50
56076;DHT22;41951;49.022;12.066;2022-07-29T11:55:02;28.00;77.10
56076;DHT22;41951;49.022;12.066;2022-07-29T11:57:28;28.00;77.60
56076;DHT22;41951;49.022;12.066;2022-07-29T11:59:55;28.00;77.70
56076;DHT22;41951;49.022;12.066;2022-07-29T12:02:22;28.00;78.10
56076;DHT22;41951;49.022;12.066;2022-07-29T12:07:17;28.20;78.70
56076;DHT22;41951;49.022;12.066;2022-07-29T12:09:50;28.30;78.80
56076;DHT22;41951;49.022;12.066;2022-07-29T12:12:17;28.30;78.90
56076;DHT22;41951;49.022;12.066;2022-07-29T12:14:43;28.20;78.70
56076;DHT22;41951;49.022;12.066;2022-07-29T12:17:32;28.10;78.90
56076;DHT22;41951;49.022;12.066;2022-07-29T12:20:03;28.00;78.90
56076;DHT22;41951;49.022;12.066;2022-07-29T12:22:37;28.00;79.30
56076;DHT22;41951;49.022;12.066;2022-07-29T12:25:08;28.00;79.80
56076;DHT22;41951;49.022;12.066;2022-07-29T12:27:34;28.00;79.70
56076;DHT22;41951;49.022;12.066;2022-07-29T12:30:04;27.90;80.00
56076;DHT22;41951;49.022;12.066;2022-07-29T12:32:39;27.80;80.00
56076;DHT22;41951;49.022;12.066;2022-07-29T12:35:07;27.70;79.60
56076;DHT22;41951;49.022;12.066;2022-07-29T12:37:34;27.60;79.80
56076;DHT22;41951;49.022;12.066;2022-07-29T12:40:02;27.60;80.00
56076;DHT22;41951;49.022;12.066;2022-07-29T12:42:28;27.50;80.00
56076;DHT22;41951;49.022;12.066;2022-07-29T12:44:53;27.60;80.50
56076;DHT22;41951;49.022;12.066;2022-07-29T12:47:20;27.60;80.50
56076;DHT22;41951;49.022;12.066;2022-07-29T12:49:45;27.70;80.60
56076;DHT22;41951;49.022;12.066;2022-07-29T12:52:24;27.80;80.60
56076;DHT22;41951;49.022;12.066;2022-07-29T12:54:50;27.90;80.10
56076;DHT22;41951;49.022;12.066;2022-07-29T12:57:16;27.80;80.60
56076;DHT22;41951;49.022;12.066;2022-07-29T12:59:41;27.90;80.40
56076;DHT22;41951;49.022;12.066;2022-07-29T13:02:19;27.70;79.70
56076;DHT22;41951;49.022;12.066;2022-07-29T13:04:57;27.80;80.20
56076;DHT22;41951;49.022;12.066;2022-07-29T13:07:28;27.90;79.40
56076;DHT22;41951;49.022;12.066;2022-07-29T13:12:34;28.50;79.50
56076;DHT22;41951;49.022;12.066;2022-07-29T13:14:59;28.90;79.40
56076;DHT22;41951;49.022;12.066;2022-07-29T13:17:26;29.10;78.90
56076;DHT22;41951;49.022;12.066;2022-07-29T13:20:14;29.30;78.30
56076;DHT22;41951;49.022;12.066;2022-07-29T13:22:47;29.20;76.90
56076;DHT22;41951;49.022;12.066;2022-07-29T13:25:13;29.00;76.30
56076;DHT22;41951;49.022;12.066;2022-07-29T13:27:38;28.80;77.00
56076;DHT22;41951;49.022;12.066;2022-07-29T13:30:07;28.70;77.10
56076;DHT22;41951;49.022;12.066;2022-07-29T13:32:33;28.70;77.50
56076;DHT22;41951;49.022;12.066;2022-07-29T13:35:05;28.80;77.20
56076;DHT22;41951;49.022;12.066;2022-07-29T13:37:32;28.70;77.20
56076;DHT22;41951;49.022;12.066;2022-07-29T13:39:59;28.80;77.00
56076;DHT22;41951;49.022;12.066;2022-07-29T13:42:26;28.90;76.30
56076;DHT22;41951;49.022;12.066;2022-07-29T13:44:52;29.00;75.40
56076;DHT22;41951;49.022;12.066;2022-07-29T13:47:19;29.20;75.80
56076;DHT22;41951;49.022;12.066;2022-07-29T13:49:45;29.30;75.40
56076;DHT22;41951;49.022;12.066;2022-07-29T13:52:10;29.20;75.00
56076;DHT22;41951;49.022;12.066;2022-07-29T13:54:36;29.20;74.80
56076;DHT22;41951;49.022;12.066;2022-07-29T13:57:05;29.00;74.50
56076;DHT22;41951;49.022;12.066;2022-07-29T13:59:30;28.80;74.60
56076;DHT22;41951;49.022;12.066;2022-07-29T14:01:56;28.70;75.90
56076;DHT22;41951;49.022;12.066;2022-07-29T14:04:22;28.70;75.10
56076;DHT22;41951;49.022;12.066;2022-07-29T14:06:49;28.70;75.20
56076;DHT22;41951;49.022;12.066;2022-07-29T14:09:14;28.70;75.40
56076;DHT22;41951;49.022;12.066;2022-07-29T14:11:40;28.90;75.40
56076;DHT22;41951;49.022;12.066;2022-07-29T14:14:06;29.20;75.40
56076;DHT22;41951;49.022;12.066;2022-07-29T14:16:31;29.60;74.70
56076;DHT22;41951;49.022;12.066;2022-07-29T14:18:57;29.80;74.10
56076;DHT22;41951;49.022;12.066;2022-07-29T14:21:22;29.90;73.70
56076;DHT22;41951;49.022;12.066;2022-07-29T14:23:48;29.90;73.50
56076;DHT22;41951;49.022;12.066;2022-07-29T14:26:14;29.70;73.40
56076;DHT22;41951;49.022;12.066;2022-07-29T14:28:39;29.60;73.60
56076;DHT22;41951;49.022;12.066;2022-07-29T14:31:05;29.30;73.60
56076;DHT22;41951;49.022;12.066;2022-07-29T14:33:30;29.10;73.60
56076;DHT22;41951;49.022;12.066;2022-07-29T14:35:56;28.90;73.70
56076;DHT22;41951;49.022;12.066;2022-07-29T14:38:22;28.60;73.90
56076;DHT22;41951;49.022;12.066;2022-07-29T14:40:47;28.40;74.50
56076;DHT22;41951;49.022;12.066;2022-07-29T14:43:13;28.30;74.90
56076;DHT22;41951;49.022;12.066;2022-07-29T14:45:40;28.30;75.40
56076;DHT22;41951;49.022;12.066;2022-07-29T14:48:05;28.20;75.70
56076;DHT22;41951;49.022;12.066;2022-07-29T14:50:31;28.10;75.60
56076;DHT22;41951;49.022;12.066;2022-07-29T14:52:57;28.10;75.70
56076;DHT22;41951;49.022;12.066;2022-07-29T14:55:22;28.00;75.60
56076;DHT22;41951;49.022;12.066;2022-07-29T14:57:48;27.90;75.40
56076;DHT22;41951;49.022;12.066;2022-07-29T15:00:15;27.70;75.40
56076;DHT22;41951;49.022;12.066;2022-07-29T15:02:41;27.60;75.50
56076;DHT22;41951;49.022;12.066;2022-07-29T15:05:06;27.60;75.60
56076;DHT22;41951;49.022;12.066;2022-07-29T15:07:32;27.50;75.60
56076;DHT22;41951;49.022;12.066;2022-07-29T15:09:58;27.50;75.70
56076;DHT22;41951;49.022;12.066;2022-07-29T15:12:23;27.60;75.90
56076;DHT22;41951;49.022;12.066;2022-07-29T15:14:49;27.60;75.90
56076;DHT22;41951;49.022;12.066;2022-07-29T15:17:14;27.60;75.90
56076;DHT22;41951;49.022;12.066;2022-07-29T15:19:40;27.60;76.20
56076;DHT22;41951;49.022;12.066;2022-07-29T15:22:05;27.50;77.00
56076;DHT22;41951;49.022;12.066;2022-07-29T15:24:31;27.40;77.70
56076;DHT22;41951;49.022;12.066;2022-07-29T15:26:57;27.30;78.30
56076;DHT22;41951;49.022;12.066;2022-07-29T15:29:23;27.30;79.20
56076;DHT22;41951;49.022;12.066;2022-07-29T15:31:48;27.20;79.30
56076;DHT22;41951;49.022;12.066;2022-07-29T15:34:14;27.20;79.60
56076;DHT22;41951;49.022;12.066;2022-07-29T15:36:40;27.20;80.20
56076;DHT22;41951;49.022;12.066;2022-07-29T15:39:05;27.20;80.80
56076;DHT22;41951;49.022;12.066;2022-07-29T15:41:32;27.10;81.40
56076;DHT22;41951;49.022;12.066;2022-07-29T15:43:58;27.10;82.10
56076;DHT22;41951;49.022;12.066;2022-07-29T15:46:23;27.10;82.70
56076;DHT22;41951;49.022;12.066;2022-07-29T15:49:07;27.10;83.00
56076;DHT22;41951;49.022;12.066;2022-07-29T15:51:33;27.00;83.40
56076;DHT22;41951;49.022;12.066;2022-07-29T15:54:03;26.90;83.40
56076;DHT22;41951;49.022;12.066;2022-07-29T15:56:29;26.80;83.30
56076;DHT22;41951;49.022;12.066;2022-07-29T15:58:55;26.80;83.00
56076;DHT22;41951;49.022;12.066;2022-07-29T16:01:21;26.70;82.50
56076;DHT22;41951;49.022;12.066;2022-07-29T16:03:46;26.70;82.20
56076;DHT22;41951;49.022;12.066;2022-07-29T16:06:12;26.50;81.60
56076;DHT22;41951;49.022;12.066;2022-07-29T16:08:38;26.40;81.50